| time (UTC) | temp F | wind direction | speed knots | gust knots | rain 1hr in | rain 24hr in | rain mn in | humidity % | barometer mb |
| 20260510174802 | 77 | 0 | 56.5 | 66.9 | 0.00 | 0.00 | 0.00 | ||
| 20260510174202 | 75 | 0 | 56.5 | 65.2 | 0.00 | 0.00 | 0.00 | ||
| 20260510173603 | 74 | 0 | 56.5 | 64.3 | 0.00 | 0.00 | 0.00 | ||
| 20260510173003 | 73 | 0 | 56.5 | 63.4 | 0.00 | 0.00 | 0.00 | ||
| 20260510172402 | 75 | 0 | 56.5 | 65.2 | 0.00 | 0.00 | 0.00 | ||
| 20260510171802 | 72 | 0 | 56.5 | 62.6 | 0.00 | 0.00 | 0.00 | ||
| 20260510171201 | 71 | 0 | 55.6 | 61.7 | 0.00 | 0.00 | 0.00 | ||
| 20260510170602 | 72 | 0 | 55.6 | 62.6 | 0.00 | 0.00 | 0.00 | ||
| 20260510170002 | 73 | 0 | 55.6 | 63.4 | 0.00 | 0.00 | 0.00 | ||
| 20260510165403 | 74 | 0 | 55.6 | 64.3 | 0.00 | 0.00 | 0.00 | ||
| 20260510164803 | 73 | 0 | 55.6 | 63.4 | 0.00 | 0.00 | 0.00 | ||
| 20260510164202 | 72 | 0 | 55.6 | 62.6 | 0.00 | 0.00 | 0.00 | ||
| 20260510163602 | 72 | 0 | 55.6 | 62.6 | 0.00 | 0.00 | 0.00 | ||
| 20260510163002 | 73 | 0 | 55.6 | 63.4 | 0.00 | 0.00 | 0.00 | ||
| 20260510162401 | 76 | 0 | 55.6 | 66.0 | 0.00 | 0.00 | 0.00 | ||
| 20260510161802 | 74 | 0 | 55.6 | 64.3 | 0.00 | 0.00 | 0.00 | ||
| 20260510161201 | 73 | 0 | 55.6 | 63.4 | 0.00 | 0.00 | 0.00 | ||
| 20260510160602 | 73 | 0 | 55.6 | 63.4 | 0.00 | 0.00 | 0.00 | ||
| 20260510160002 | 73 | 0 | 55.6 | 63.4 | 0.00 | 0.00 | 0.00 | ||
| 20260510155402 | 72 | 0 | 55.6 | 62.6 | 0.00 | 0.00 | 0.00 | ||
| 20260510154802 | 71 | 0 | 54.7 | 61.7 | 0.00 | 0.00 | 0.00 | ||
| 20260510154202 | 71 | 0 | 54.7 | 61.7 | 0.00 | 0.00 | 0.00 | ||
| 20260510153601 | 71 | 0 | 54.7 | 61.7 | 0.00 | 0.00 | 0.00 | ||
| 20260510153003 | 70 | 0 | 54.7 | 60.8 | 0.00 | 0.00 | 0.00 | ||
| 20260510152403 | 69 | 0 | 54.7 | 60.0 | 0.00 | 0.00 | 0.00 | ||
| 20260510151802 | 68 | 0 | 54.7 | 59.1 | 0.00 | 0.00 | 0.00 | ||
| 20260510151201 | 68 | 0 | 54.7 | 59.1 | 0.00 | 0.00 | 0.00 | ||
| 20260510150602 | 68 | 0 | 54.7 | 59.1 | 0.00 | 0.00 | 0.00 | ||
| 20260510150002 | 68 | 0 | 54.7 | 59.1 | 0.00 | 0.00 | 0.00 | ||
| 20260510145402 | 66 | 0 | 53.9 | 57.4 | 0.00 | 0.00 | 0.00 | ||
| 20260510144802 | 68 | 0 | 53.9 | 59.1 | 0.00 | 0.00 | 0.00 | ||
| 20260510143602 | 67 | 0 | 53.9 | 58.2 | 0.00 | 0.00 | 0.00 | ||
| 20260510143002 | 69 | 0 | 53.9 | 60.0 | 0.00 | 0.00 | 0.00 | ||
| 20260510142401 | 65 | 0 | 53.9 | 56.5 | 0.00 | 0.00 | 0.00 | ||
| 20260510141803 | 66 | 0 | 53.9 | 57.4 | 0.00 | 0.00 | 0.00 | ||
| 20260510141202 | 63 | 0 | 53.9 | 54.7 | 0.00 | 0.00 | 0.00 | ||
| 20260510140602 | 62 | 0 | 53.9 | 53.9 | 0.00 | 0.00 | 0.00 | ||
| 20260510140001 | 61 | 0 | 53.9 | 53.0 | 0.00 | 0.00 | 0.00 | ||
| 20260510135402 | 62 | 0 | 53.9 | 53.9 | 0.00 | 0.00 | 0.00 | ||
| 20260510134802 | 60 | 0 | 53.9 | 52.1 | 0.00 | 0.00 | 0.00 | ||
| 20260510134202 | 58 | 0 | 53.9 | 50.4 | 0.00 | 0.00 | 0.00 | ||
| 20260510133601 | 57 | 0 | 53.9 | 49.5 | 0.00 | 0.00 | 0.00 | ||
| 20260510133002 | 56 | 0 | 53.0 | 48.7 | 0.00 | 0.00 | 0.00 | ||
| 20260510132403 | 56 | 0 | 53.0 | 48.7 | 0.00 | 0.00 | 0.00 | ||
| 20260510131802 | 56 | 0 | 53.0 | 48.7 | 0.00 | 0.00 | 0.00 | ||
| 20260510131202 | 54 | 0 | 53.0 | 46.9 | 0.00 | 0.00 | 0.00 | ||
| 20260510130602 | 54 | 0 | 53.0 | 46.9 | 0.00 | 0.00 | 0.00 | ||
| 20260510130002 | 54 | 0 | 53.0 | 46.9 | 0.00 | 0.00 | 0.00 | ||
| 20260510125402 | 54 | 0 | 53.0 | 46.9 | 0.00 | 0.00 | 0.00 | ||
| 20260510124801 | 54 | 0 | 53.0 | 46.9 | 0.00 | 0.00 | 0.00 | ||
| 20260510124202 | 53 | 0 | 53.0 | 46.1 | 0.00 | 0.00 | 0.00 | ||
| 20260510123602 | 54 | 0 | 53.0 | 46.9 | 0.00 | 0.00 | 0.00 | ||
| 20260510123002 | 53 | 0 | 53.0 | 46.1 | 0.00 | 0.00 | 0.00 | ||
| 20260510122402 | 52 | 0 | 53.0 | 45.2 | 0.00 | 0.00 | 0.00 | ||
| 20260510121802 | 54 | 0 | 53.0 | 46.9 | 0.00 | 0.00 | 0.00 | ||
| 20260510121203 | 53 | 0 | 53.0 | 46.1 | 0.00 | 0.00 | 0.00 | ||
| 20260510120602 | 50 | 0 | 53.0 | 43.4 | 0.00 | 0.00 | 0.00 | ||
| 20260510120002 | 51 | 0 | 53.0 | 44.3 | 0.00 | 0.00 | 0.00 | ||
| 20260510115403 | 50 | 0 | 53.0 | 43.4 | 0.00 | 0.00 | 0.00 | ||
| 20260510114803 | 50 | 0 | 53.0 | 43.4 | 0.00 | 0.00 | 0.00 | ||
| 20260510114202 | 50 | 0 | 53.0 | 43.4 | 0.00 | 0.00 | 0.00 | ||
| 20260510113602 | 50 | 0 | 53.0 | 43.4 | 0.00 | 0.00 | 0.00 | ||
| 20260510113002 | 50 | 0 | 53.0 | 43.4 | 0.00 | 0.00 | 0.00 | ||
| 20260510112402 | 50 | 0 | 53.0 | 43.4 | 0.00 | 0.00 | 0.00 | ||
| 20260510111802 | 50 | 0 | 53.0 | 43.4 | 0.00 | 0.00 | 0.00 | ||
| 20260510111203 | 50 | 0 | 53.0 | 43.4 | 0.00 | 0.00 | 0.00 | ||
| 20260510110601 | 50 | 0 | 53.0 | 43.4 | 0.00 | 0.00 | 0.00 | ||
| 20260510110002 | 49 | 0 | 53.0 | 42.6 | 0.00 | 0.00 | 0.00 | ||
| 20260510105402 | 50 | 0 | 53.0 | 43.4 | 0.00 | 0.00 | 0.00 | ||
| 20260510104802 | 49 | 0 | 53.0 | 42.6 | 0.00 | 0.00 | 0.00 | ||
| 20260510104201 | 49 | 0 | 53.0 | 42.6 | 0.00 | 0.00 | 0.00 | ||
| 20260510103602 | 49 | 0 | 53.0 | 42.6 | 0.00 | 0.00 | 0.00 | ||
| 20260510103002 | 49 | 0 | 53.0 | 42.6 | 0.00 | 0.00 | 0.00 | ||
| 20260510102401 | 49 | 0 | 53.0 | 42.6 | 0.00 | 0.00 | 0.00 | ||
| 20260510101802 | 49 | 0 | 53.0 | 42.6 | 0.00 | 0.00 | 0.00 | ||
| 20260510101203 | 49 | 0 | 53.0 | 42.6 | 0.00 | 0.00 | 0.00 | ||
| 20260510100601 | 48 | 0 | 53.0 | 41.7 | 0.00 | 0.00 | 0.00 | ||
| 20260510100003 | 49 | 0 | 53.0 | 42.6 | 0.00 | 0.00 | 0.00 | ||
| 20260510095402 | 49 | 0 | 53.0 | 42.6 | 0.00 | 0.00 | 0.00 | ||
| 20260510094801 | 49 | 0 | 53.0 | 42.6 | 0.00 | 0.00 | 0.00 | ||
| 20260510094202 | 49 | 0 | 53.0 | 42.6 | 0.00 | 0.00 | 0.00 | ||
| 20260510093602 | 49 | 0 | 53.0 | 42.6 | 0.00 | 0.00 | 0.00 | ||
| 20260510093002 | 49 | 0 | 53.0 | 42.6 | 0.00 | 0.00 | 0.00 | ||
| 20260510092402 | 49 | 0 | 53.0 | 42.6 | 0.00 | 0.00 | 0.00 | ||
| 20260510091802 | 49 | 0 | 53.0 | 42.6 | 0.00 | 0.00 | 0.00 | ||
| 20260510091202 | 49 | 0 | 53.0 | 42.6 | 0.00 | 0.00 | 0.00 | ||
| 20260510090602 | 49 | 0 | 53.0 | 42.6 | 0.00 | 0.00 | 0.00 | ||
| 20260510090001 | 49 | 0 | 53.0 | 42.6 | 0.00 | 0.00 | 0.00 | ||
| 20260510085402 | 49 | 0 | 53.0 | 42.6 | 0.00 | 0.00 | 0.00 | ||
| 20260510084802 | 48 | 0 | 53.9 | 41.7 | 0.00 | 0.00 | 0.00 | ||
| 20260510084202 | 48 | 0 | 53.0 | 41.7 | 0.00 | 0.00 | 0.00 | ||
| 20260510083602 | 48 | 0 | 53.9 | 41.7 | 0.00 | 0.00 | 0.00 | ||
| 20260510083003 | 48 | 0 | 53.9 | 41.7 | 0.00 | 0.00 | 0.00 | ||
| 20260510082401 | 48 | 0 | 53.9 | 41.7 | 0.00 | 0.00 | 0.00 | ||
| 20260510081802 | 48 | 0 | 53.9 | 41.7 | 0.00 | 0.00 | 0.00 | ||
| 20260510081202 | 48 | 0 | 53.9 | 41.7 | 0.00 | 0.00 | 0.00 | ||
| 20260510080602 | 48 | 0 | 53.9 | 41.7 | 0.00 | 0.00 | 0.00 | ||
| 20260510080002 | 48 | 0 | 53.9 | 41.7 | 0.00 | 0.00 | 0.00 | ||
| 20260510075402 | 48 | 0 | 53.9 | 41.7 | 0.00 | 0.00 | 0.00 | ||
| 20260510074801 | 48 | 0 | 53.9 | 41.7 | 0.00 | 0.00 | 0.00 | ||
| 20260510074201 | 47 | 0 | 53.9 | 40.8 | 0.00 | 0.00 | 0.00 | ||
| 20260510073602 | 47 | 0 | 53.9 | 40.8 | 0.00 | 0.00 | 0.00 | ||
| 20260510073001 | 47 | 0 | 53.9 | 40.8 | 0.00 | 0.00 | 0.00 | ||
| 20260510072402 | 47 | 0 | 53.9 | 40.8 | 0.00 | 0.00 | 0.00 | ||
| 20260510071802 | 46 | 0 | 53.9 | 40.0 | 0.00 | 0.00 | 0.00 | ||
| 20260510071202 | 47 | 0 | 53.9 | 40.8 | 0.00 | 0.00 | 0.00 | ||
| 20260510070602 | 46 | 0 | 53.9 | 40.0 | 0.00 | 0.00 | 0.00 | ||
| 20260510070002 | 47 | 0 | 53.9 | 40.8 | 0.00 | 0.00 | 0.00 | ||
| 20260510065402 | 47 | 0 | 53.9 | 40.8 | 0.00 | 0.00 | 0.00 | ||
| 20260510064802 | 47 | 0 | 53.9 | 40.8 | 0.00 | 0.00 | 0.00 | ||
| 20260510064201 | 47 | 0 | 53.9 | 40.8 | 0.00 | 0.00 | 0.00 | ||
| 20260510063602 | 47 | 0 | 53.9 | 40.8 | 0.00 | 0.00 | 0.00 | ||
| 20260510063001 | 47 | 0 | 53.9 | 40.8 | 0.00 | 0.00 | 0.00 | ||
| 20260510062402 | 47 | 0 | 53.9 | 40.8 | 0.00 | 0.00 | 0.00 | ||
| 20260510061802 | 46 | 0 | 53.9 | 40.0 | 0.00 | 0.00 | 0.00 | ||
| 20260510061201 | 46 | 0 | 53.9 | 40.0 | 0.00 | 0.00 | 0.00 | ||
| 20260510060602 | 46 | 0 | 53.9 | 40.0 | 0.00 | 0.00 | 0.00 | ||
| 20260510060002 | 46 | 0 | 53.9 | 40.0 | 0.00 | 0.00 | 0.00 | ||
| 20260510055402 | 46 | 0 | 53.9 | 40.0 | 0.00 | 0.00 | 0.00 | ||
| 20260510054802 | 46 | 0 | 53.9 | 40.0 | 0.00 | 0.00 | 0.00 | ||
| 20260510054201 | 46 | 0 | 53.9 | 40.0 | 0.00 | 0.00 | 0.00 | ||
| 20260510053602 | 46 | 0 | 53.9 | 40.0 | 0.00 | 0.00 | 0.00 | ||
| 20260510053001 | 46 | 0 | 53.9 | 40.0 | 0.00 | 0.00 | 0.00 | ||
| 20260510052401 | 46 | 0 | 53.9 | 40.0 | 0.00 | 0.00 | 0.00 | ||
| 20260510051802 | 47 | 0 | 53.9 | 40.8 | 0.00 | 0.00 | 0.00 | ||
| 20260510051202 | 47 | 0 | 53.9 | 40.8 | 0.00 | 0.00 | 0.00 | ||
| 20260510050602 | 47 | 0 | 53.9 | 40.8 | 0.00 | 0.00 | 0.00 | ||
| 20260510050002 | 48 | 0 | 53.9 | 41.7 | 0.00 | 0.00 | 0.00 | ||
| 20260510045402 | 48 | 0 | 53.9 | 41.7 | 0.00 | 0.00 | 0.00 | ||
| 20260510044801 | 48 | 0 | 53.9 | 41.7 | 0.00 | 0.00 | 0.00 | ||
| 20260510044202 | 48 | 0 | 53.9 | 41.7 | 0.00 | 0.00 | 0.00 | ||
| 20260510043602 | 48 | 0 | 53.9 | 41.7 | 0.00 | 0.00 | 0.00 | ||
| 20260510043002 | 48 | 0 | 53.9 | 41.7 | 0.00 | 0.00 | 0.00 | ||
| 20260510042402 | 48 | 0 | 53.9 | 41.7 | 0.00 | 0.00 | 0.00 | ||
| 20260510041801 | 48 | 0 | 53.9 | 41.7 | 0.00 | 0.00 | 0.00 | ||
| 20260510041202 | 48 | 0 | 53.9 | 41.7 | 0.00 | 0.00 | 0.00 | ||
| 20260510040603 | 48 | 0 | 53.9 | 41.7 | 0.00 | 0.00 | 0.00 | ||
| 20260510040002 | 48 | 0 | 53.9 | 41.7 | 0.00 | 0.00 | 0.00 | ||
| 20260510035402 | 48 | 0 | 53.9 | 41.7 | 0.00 | 0.00 | 0.00 | ||
| 20260510034801 | 48 | 0 | 53.9 | 41.7 | 0.00 | 0.00 | 0.00 | ||
| 20260510034202 | 48 | 0 | 53.9 | 41.7 | 0.00 | 0.00 | 0.00 | ||
| 20260510033602 | 48 | 0 | 53.9 | 41.7 | 0.00 | 0.00 | 0.00 | ||
| 20260510033002 | 48 | 0 | 53.9 | 41.7 | 0.00 | 0.00 | 0.00 | ||
| 20260510032402 | 48 | 0 | 53.9 | 41.7 | 0.00 | 0.00 | 0.00 | ||
| 20260510031801 | 49 | 0 | 53.9 | 42.6 | 0.00 | 0.00 | 0.00 | ||
| 20260510031202 | 49 | 0 | 54.7 | 42.6 | 0.00 | 0.00 | 0.00 | ||
| 20260510030601 | 49 | 0 | 54.7 | 42.6 | 0.00 | 0.00 | 0.00 | ||
| 20260510030002 | 49 | 0 | 54.7 | 42.6 | 0.00 | 0.00 | 0.00 | ||
| 20260510025403 | 49 | 0 | 54.7 | 42.6 | 0.00 | 0.00 | 0.00 | ||
| 20260510024803 | 49 | 0 | 54.7 | 42.6 | 0.00 | 0.00 | 0.00 | ||
| 20260510024202 | 50 | 0 | 54.7 | 43.4 | 0.00 | 0.00 | 0.00 | ||
| 20260510023601 | 50 | 0 | 54.7 | 43.4 | 0.00 | 0.00 | 0.00 | ||
| 20260510023002 | 50 | 0 | 54.7 | 43.4 | 0.00 | 0.00 | 0.00 | ||
| 20260510022402 | 50 | 0 | 54.7 | 43.4 | 0.00 | 0.00 | 0.00 | ||
| 20260510021802 | 50 | 0 | 54.7 | 43.4 | 0.00 | 0.00 | 0.00 | ||
| 20260510021202 | 50 | 0 | 54.7 | 43.4 | 0.00 | 0.00 | 0.00 | ||
| 20260510020601 | 50 | 0 | 54.7 | 43.4 | 0.00 | 0.00 | 0.00 | ||
| 20260510015401 | 50 | 0 | 54.7 | 43.4 | 0.00 | 0.00 | 0.00 | ||
| 20260510014802 | 50 | 0 | 54.7 | 43.4 | 0.00 | 0.00 | 0.00 | ||
| 20260510014202 | 50 | 0 | 54.7 | 43.4 | 0.00 | 0.00 | 0.00 | ||
| 20260510013601 | 50 | 0 | 54.7 | 43.4 | 0.00 | 0.00 | 0.00 | ||
| 20260510013002 | 50 | 0 | 54.7 | 43.4 | 0.00 | 0.00 | 0.00 | ||
| 20260510012401 | 50 | 0 | 54.7 | 43.4 | 0.00 | 0.00 | 0.00 | ||
| 20260510011801 | 50 | 0 | 54.7 | 43.4 | 0.00 | 0.00 | 0.00 | ||
| 20260510011202 | 50 | 0 | 54.7 | 43.4 | 0.00 | 0.00 | 0.00 | ||
| 20260510010602 | 50 | 0 | 54.7 | 43.4 | 0.00 | 0.00 | 0.00 | ||
| 20260510010002 | 51 | 0 | 54.7 | 44.3 | 0.00 | 0.00 | 0.00 | ||
| 20260510005402 | 51 | 0 | 54.7 | 44.3 | 0.00 | 0.00 | 0.00 | ||
| 20260510004802 | 51 | 0 | 54.7 | 44.3 | 0.00 | 0.00 | 0.00 | ||
| 20260510004201 | 51 | 0 | 54.7 | 44.3 | 0.00 | 0.00 | 0.00 | ||
| 20260510003601 | 51 | 0 | 54.7 | 44.3 | 0.00 | 0.00 | 0.00 | ||
| 20260510003003 | 51 | 0 | 54.7 | 44.3 | 0.00 | 0.00 | 0.00 | ||
| 20260510002402 | 52 | 0 | 54.7 | 45.2 | 0.00 | 0.00 | 0.00 | ||
| 20260510001802 | 52 | 0 | 54.7 | 45.2 | 0.00 | 0.00 | 0.00 | ||
| 20260510001201 | 52 | 0 | 54.7 | 45.2 | 0.00 | 0.00 | 0.00 | ||
| 20260510000602 | 52 | 0 | 54.7 | 45.2 | 0.00 | 0.00 | 0.00 | ||
| 20260510000003 | 52 | 0 | 54.7 | 45.2 | 0.00 | 0.00 | 0.00 | ||
| 20260509235401 | 53 | 0 | 54.7 | 46.1 | 0.00 | 0.00 | 0.00 | ||
| 20260509234802 | 53 | 0 | 54.7 | 46.1 | 0.00 | 0.00 | 0.00 | ||
| 20260509234202 | 54 | 0 | 54.7 | 46.9 | 0.00 | 0.00 | 0.00 | ||
| 20260509233602 | 54 | 0 | 54.7 | 46.9 | 0.00 | 0.00 | 0.00 | ||
| 20260509233001 | 54 | 0 | 54.7 | 46.9 | 0.00 | 0.00 | 0.00 | ||
| 20260509232402 | 54 | 0 | 54.7 | 46.9 | 0.00 | 0.00 | 0.00 | ||
| 20260509231802 | 54 | 0 | 54.7 | 46.9 | 0.00 | 0.00 | 0.00 | ||
| 20260509231202 | 54 | 0 | 54.7 | 46.9 | 0.00 | 0.00 | 0.00 | ||
| 20260509230602 | 55 | 0 | 54.7 | 47.8 | 0.00 | 0.00 | 0.00 | ||
| 20260509230002 | 55 | 0 | 54.7 | 47.8 | 0.00 | 0.00 | 0.00 | ||
| 20260509225402 | 55 | 0 | 54.7 | 47.8 | 0.00 | 0.00 | 0.00 | ||
| 20260509224802 | 56 | 0 | 54.7 | 48.7 | 0.00 | 0.00 | 0.00 | ||
| 20260509224202 | 56 | 0 | 54.7 | 48.7 | 0.00 | 0.00 | 0.00 | ||
| 20260509223602 | 57 | 0 | 54.7 | 49.5 | 0.00 | 0.00 | 0.00 | ||
| 20260509223001 | 57 | 0 | 55.6 | 49.5 | 0.00 | 0.00 | 0.00 | ||
| 20260509222402 | 56 | 0 | 54.7 | 48.7 | 0.00 | 0.00 | 0.00 | ||
| 20260509221801 | 56 | 0 | 55.6 | 48.7 | 0.00 | 0.00 | 0.00 | ||
| 20260509221202 | 56 | 0 | 54.7 | 48.7 | 0.00 | 0.00 | 0.00 | ||
| 20260509220603 | 56 | 0 | 55.6 | 48.7 | 0.00 | 0.00 | 0.00 | ||
| 20260509220002 | 56 | 0 | 54.7 | 48.7 | 0.00 | 0.00 | 0.00 | ||
| 20260509215403 | 56 | 0 | 55.6 | 48.7 | 0.00 | 0.00 | 0.00 | ||
| 20260509214802 | 57 | 0 | 55.6 | 49.5 | 0.00 | 0.00 | 0.00 | ||
| 20260509214202 | 57 | 0 | 54.7 | 49.5 | 0.00 | 0.00 | 0.00 | ||
| 20260509213602 | 57 | 0 | 54.7 | 49.5 | 0.00 | 0.00 | 0.00 | ||
| 20260509213001 | 57 | 0 | 54.7 | 49.5 | 0.00 | 0.00 | 0.00 | ||
| 20260509212402 | 56 | 0 | 54.7 | 48.7 | 0.00 | 0.00 | 0.00 | ||
| 20260509211802 | 57 | 0 | 54.7 | 49.5 | 0.00 | 0.00 | 0.00 | ||
| 20260509211202 | 57 | 0 | 54.7 | 49.5 | 0.00 | 0.00 | 0.00 | ||
| 20260509210601 | 57 | 0 | 54.7 | 49.5 | 0.00 | 0.00 | 0.00 | ||
| 20260509210002 | 57 | 0 | 54.7 | 49.5 | 0.00 | 0.00 | 0.00 | ||
| 20260509205402 | 56 | 0 | 54.7 | 48.7 | 0.00 | 0.00 | 0.00 | ||
| 20260509204802 | 57 | 0 | 54.7 | 49.5 | 0.00 | 0.00 | 0.00 | ||
| 20260509204202 | 56 | 0 | 54.7 | 48.7 | 0.00 | 0.00 | 0.00 | ||
| 20260509203602 | 56 | 0 | 54.7 | 48.7 | 0.00 | 0.00 | 0.00 | ||
| 20260509203002 | 55 | 0 | 54.7 | 47.8 | 0.00 | 0.00 | 0.00 | ||
| 20260509202401 | 55 | 0 | 54.7 | 47.8 | 0.00 | 0.00 | 0.00 | ||
| 20260509201802 | 54 | 0 | 54.7 | 46.9 | 0.00 | 0.00 | 0.00 | ||
| 20260509201202 | 55 | 0 | 54.7 | 47.8 | 0.00 | 0.00 | 0.00 | ||
| 20260509200601 | 54 | 0 | 54.7 | 46.9 | 0.00 | 0.00 | 0.00 | ||
| 20260509200001 | 55 | 0 | 54.7 | 47.8 | 0.00 | 0.00 | 0.00 | ||
| 20260509195401 | 55 | 0 | 54.7 | 47.8 | 0.00 | 0.00 | 0.00 | ||
| 20260509194802 | 54 | 0 | 54.7 | 46.9 | 0.00 | 0.00 | 0.00 | ||
| 20260509194202 | 54 | 0 | 54.7 | 46.9 | 0.00 | 0.00 | 0.00 | ||
| 20260509193602 | 55 | 0 | 54.7 | 47.8 | 0.00 | 0.00 | 0.00 | ||
| 20260509193003 | 54 | 0 | 54.7 | 46.9 | 0.00 | 0.00 | 0.00 | ||
| 20260509192402 | 54 | 0 | 54.7 | 46.9 | 0.00 | 0.00 | 0.00 | ||
| 20260509191801 | 54 | 0 | 54.7 | 46.9 | 0.00 | 0.00 | 0.00 | ||
| 20260509191202 | 54 | 0 | 54.7 | 46.9 | 0.00 | 0.00 | 0.00 | ||
| 20260509190602 | 53 | 0 | 54.7 | 46.1 | 0.00 | 0.00 | 0.00 | ||
| 20260509190002 | 54 | 0 | 54.7 | 46.9 | 0.00 | 0.00 | 0.00 | ||
| 20260509185402 | 54 | 0 | 54.7 | 46.9 | 0.00 | 0.00 | 0.00 | ||
| 20260509184802 | 54 | 0 | 54.7 | 46.9 | 0.00 | 0.00 | 0.00 | ||
| 20260509184202 | 54 | 0 | 54.7 | 46.9 | 0.00 | 0.00 | 0.00 | ||
| 20260509183602 | 54 | 0 | 54.7 | 46.9 | 0.00 | 0.00 | 0.00 | ||
| 20260509183002 | 54 | 0 | 54.7 | 46.9 | 0.00 | 0.00 | 0.00 | ||
| 20260509182402 | 54 | 0 | 54.7 | 46.9 | 0.00 | 0.00 | 0.00 | ||
| 20260509181801 | 54 | 0 | 54.7 | 46.9 | 0.00 | 0.00 | 0.00 | ||
| 20260509181202 | 54 | 0 | 54.7 | 46.9 | 0.00 | 0.00 | 0.00 | ||
| 20260509180601 | 54 | 0 | 54.7 | 46.9 | 0.00 | 0.00 | 0.00 | ||
| 20260509180002 | 54 | 0 | 54.7 | 46.9 | 0.00 | 0.00 | 0.00 | ||
| 20260509175402 | 54 | 0 | 54.7 | 46.9 | 0.00 | 0.00 | 0.00 |